createdAt,value
2018-09-28T00:02:22.254Z,7.80
2018-09-28T00:04:50.251Z,10.50
2018-09-28T00:07:18.244Z,10.50
2018-09-28T00:09:46.255Z,11.90
2018-09-28T00:12:14.253Z,16.13
2018-09-28T00:14:42.256Z,9.90
2018-09-28T00:17:10.351Z,9.87
2018-09-28T00:19:38.364Z,7.30
2018-09-28T00:22:06.480Z,11.70
2018-09-28T00:24:34.485Z,9.57
2018-09-28T00:27:02.513Z,11.30
2018-09-28T00:29:30.521Z,9.90
2018-09-28T00:31:58.534Z,11.47
2018-09-28T00:34:26.520Z,9.97
2018-09-28T00:36:54.565Z,14.03
2018-09-28T00:39:22.566Z,9.03
2018-09-28T00:41:50.582Z,15.00
2018-09-28T00:44:18.589Z,13.03
2018-09-28T00:46:46.592Z,9.80
2018-09-28T00:49:14.585Z,11.77
2018-09-28T00:51:42.608Z,12.13
2018-09-28T00:54:10.648Z,12.00
2018-09-28T00:56:38.697Z,10.23
2018-09-28T00:59:06.717Z,14.30
2018-09-28T01:01:34.710Z,9.73
2018-09-28T01:04:02.751Z,9.60
2018-09-28T01:06:30.761Z,11.87
2018-09-28T01:08:58.803Z,11.83
2018-09-28T01:11:26.875Z,9.53
2018-09-28T01:13:54.891Z,11.40
2018-09-28T01:16:22.912Z,10.27
2018-09-28T01:18:50.929Z,11.03
2018-09-28T01:21:18.931Z,9.47
2018-09-28T01:23:46.923Z,19.20
2018-09-28T01:26:14.916Z,9.20
2018-09-28T01:28:42.918Z,11.80
2018-09-28T01:31:10.996Z,14.73
2018-09-28T01:33:38.995Z,13.90
2018-09-28T01:36:07.007Z,11.20
2018-09-28T01:38:35.040Z,12.97
2018-09-28T01:41:03.101Z,15.60
2018-09-28T01:43:32.151Z,11.63
2018-09-28T01:46:00.176Z,10.50
2018-09-28T01:48:28.167Z,14.83
2018-09-28T01:50:56.158Z,10.57
2018-09-28T01:53:24.154Z,12.03
2018-09-28T01:55:52.168Z,13.07
2018-09-28T01:58:20.156Z,12.23
2018-09-28T02:00:48.179Z,12.17
2018-09-28T02:03:16.244Z,10.13
2018-09-28T02:05:44.244Z,13.17
2018-09-28T02:08:12.234Z,11.60
2018-09-28T02:10:40.264Z,11.67
2018-09-28T02:13:08.272Z,11.40
2018-09-28T02:15:36.270Z,13.23
2018-09-28T02:18:04.418Z,12.57
2018-09-28T02:20:32.467Z,12.47
2018-09-28T02:23:00.504Z,14.83
2018-09-28T02:25:28.552Z,13.53
2018-09-28T02:27:56.561Z,12.53
2018-09-28T02:30:24.576Z,11.73
2018-09-28T02:32:52.561Z,11.57
2018-09-28T02:35:20.615Z,13.53
2018-09-28T02:37:48.620Z,10.93
2018-09-28T02:40:16.727Z,11.20
2018-09-28T02:42:44.704Z,12.57
2018-09-28T02:45:12.836Z,13.37
2018-09-28T02:47:40.856Z,10.70
2018-09-28T02:50:08.893Z,11.37
2018-09-28T02:52:36.885Z,13.17
2018-09-28T02:55:04.913Z,10.63
2018-09-28T02:57:33.006Z,10.13
2018-09-28T03:00:01.024Z,10.87
2018-09-28T03:02:29.086Z,11.93
2018-09-28T03:04:57.065Z,15.77
2018-09-28T03:07:25.078Z,13.67
2018-09-28T03:09:53.076Z,11.83
2018-09-28T03:12:21.822Z,9.87
2018-09-28T03:14:49.898Z,10.40
2018-09-28T03:17:17.936Z,13.63
2018-09-28T03:19:45.945Z,10.57
2018-09-28T03:22:13.973Z,15.37
2018-09-28T03:24:41.956Z,12.50
2018-09-28T03:27:09.997Z,13.03
2018-09-28T03:29:38.024Z,14.20
2018-09-28T03:32:06.095Z,16.80
2018-09-28T03:34:34.108Z,9.43
2018-09-28T03:37:02.148Z,10.47
2018-09-28T03:39:30.157Z,9.23
2018-09-28T03:41:58.244Z,11.60
2018-09-28T03:44:26.263Z,9.93
2018-09-28T03:46:54.268Z,16.27
2018-09-28T03:49:22.308Z,14.93
2018-09-28T03:51:50.304Z,11.13
2018-09-28T03:54:18.324Z,14.33
2018-09-28T03:56:46.353Z,15.77
2018-09-28T03:59:14.368Z,19.60
2018-09-28T04:01:42.380Z,21.00
2018-09-28T04:04:10.365Z,24.37
2018-09-28T04:06:38.382Z,20.27
2018-09-28T04:09:07.733Z,21.23
2018-09-28T04:11:35.796Z,18.03
2018-09-28T04:14:03.776Z,19.13
2018-09-28T04:16:31.805Z,14.50
2018-09-28T04:18:59.919Z,20.10
2018-09-28T04:21:27.994Z,16.87
2018-09-28T04:23:56.011Z,22.93
2018-09-28T04:26:24.125Z,19.23
2018-09-28T04:28:52.205Z,23.52
2018-09-28T04:31:20.291Z,23.47
2018-09-28T04:33:48.293Z,20.23
2018-09-28T04:36:16.365Z,21.57
2018-09-28T04:38:44.374Z,23.83
2018-09-28T04:41:12.391Z,27.77
2018-09-28T04:43:40.389Z,21.43
2018-09-28T04:46:08.408Z,22.33
2018-09-28T04:48:36.411Z,24.23
2018-09-28T04:51:04.499Z,19.47
2018-09-28T04:53:32.604Z,25.73
2018-09-28T04:56:00.632Z,24.53
2018-09-28T04:58:28.659Z,69.57
2018-09-28T05:00:56.708Z,101.20
2018-09-28T05:03:24.729Z,40.93
2018-09-28T05:05:52.760Z,41.37
2018-09-28T05:08:20.853Z,38.83
2018-09-28T05:10:48.848Z,37.83
2018-09-28T05:13:16.905Z,56.10
2018-09-28T05:15:44.907Z,35.27
2018-09-28T05:18:13.042Z,42.00
2018-09-28T05:20:41.162Z,51.47
2018-09-28T05:23:09.171Z,45.27
2018-09-28T05:25:37.190Z,44.10
2018-09-28T05:28:05.424Z,43.87
2018-09-28T05:30:33.549Z,47.40
2018-09-28T05:33:01.610Z,56.13
2018-09-28T05:35:29.618Z,46.33
2018-09-28T05:37:59.163Z,38.87
2018-09-28T05:40:27.815Z,42.10
2018-09-28T05:42:55.829Z,45.07
2018-09-28T05:45:23.854Z,42.13
2018-09-28T05:47:51.863Z,41.60
2018-09-28T05:50:19.891Z,42.63
2018-09-28T05:52:47.988Z,34.80
2018-09-28T05:55:16.050Z,31.80
2018-09-28T05:57:44.062Z,46.33
2018-09-28T06:00:12.104Z,34.10
2018-09-28T06:02:40.105Z,30.93
2018-09-28T06:05:08.192Z,31.10
2018-09-28T06:07:36.317Z,40.23
2018-09-28T06:10:04.375Z,41.20
2018-09-28T06:12:32.380Z,47.87
2018-09-28T06:15:00.456Z,32.97
2018-09-28T06:17:28.508Z,41.43
2018-09-28T06:19:56.556Z,47.70
2018-09-28T06:22:24.647Z,45.17
2018-09-28T06:24:52.690Z,45.73
2018-09-28T06:27:20.704Z,53.10
2018-09-28T06:29:48.817Z,50.33
2018-09-28T06:32:16.780Z,38.63
2018-09-28T06:34:44.792Z,49.03
2018-09-28T06:37:12.825Z,31.83
2018-09-28T06:39:40.881Z,45.43
2018-09-28T06:42:08.897Z,51.50
2018-09-28T06:44:36.914Z,45.37
2018-09-28T06:47:04.949Z,45.43
2018-09-28T06:49:33.057Z,33.77
2018-09-28T06:52:01.070Z,51.70
2018-09-28T06:54:29.091Z,46.70
2018-09-28T06:56:57.116Z,52.57
2018-09-28T06:59:25.159Z,43.43
2018-09-28T07:01:53.249Z,46.83
2018-09-28T07:04:21.276Z,22.77
2018-09-28T07:06:49.446Z,43.20
2018-09-28T07:09:17.541Z,41.70
2018-09-28T07:11:45.600Z,39.53
2018-09-28T07:14:13.816Z,49.57
2018-09-28T07:16:41.937Z,36.40
2018-09-28T07:19:09.900Z,40.77
2018-09-28T07:21:37.921Z,39.27
2018-09-28T07:24:05.991Z,45.07
2018-09-28T07:26:33.974Z,42.77
2018-09-28T07:29:02.017Z,40.60
2018-09-28T07:31:30.082Z,41.60
2018-09-28T07:33:58.116Z,42.87
2018-09-28T07:36:26.229Z,48.93
2018-09-28T07:38:54.134Z,36.40
2018-09-28T07:41:22.152Z,32.40
2018-09-28T07:43:50.220Z,35.93
2018-09-28T07:46:18.231Z,34.50
2018-09-28T07:48:46.328Z,31.73
2018-09-28T07:51:14.424Z,29.63
2018-09-28T07:53:42.459Z,27.70
2018-09-28T07:56:10.500Z,27.90
2018-09-28T07:58:38.558Z,26.47
2018-09-28T08:01:06.753Z,28.50
2018-09-28T08:03:34.760Z,23.47
2018-09-28T08:06:02.758Z,28.03
2018-09-28T08:08:30.784Z,27.73
2018-09-28T08:10:58.775Z,26.80
2018-09-28T08:13:26.860Z,22.00
2018-09-28T08:15:54.895Z,24.60
2018-09-28T08:18:22.949Z,24.87
2018-09-28T08:20:51.031Z,25.00
2018-09-28T08:23:19.122Z,24.53
2018-09-28T08:25:47.187Z,24.60
2018-09-28T08:28:15.467Z,27.50
2018-09-28T08:30:43.532Z,27.93
2018-09-28T08:33:11.536Z,21.20
2018-09-28T08:35:39.696Z,27.90
2018-09-28T08:38:07.746Z,20.63
2018-09-28T08:40:36.168Z,18.57
2018-09-28T08:43:04.219Z,18.30
2018-09-28T08:45:32.421Z,18.67
2018-09-28T08:48:00.461Z,17.80
2018-09-28T08:50:28.513Z,17.23
2018-09-28T08:52:57.413Z,19.07
2018-09-28T08:55:25.458Z,20.20
2018-09-28T08:57:53.487Z,16.07
2018-09-28T09:00:21.521Z,17.83
2018-09-28T09:02:49.571Z,13.13
2018-09-28T09:05:17.637Z,17.13
2018-09-28T09:07:45.680Z,15.73
2018-09-28T09:10:13.740Z,18.07
2018-09-28T09:12:41.758Z,16.17
2018-09-28T09:15:09.797Z,19.87
2018-09-28T09:17:37.834Z,15.87
2018-09-28T09:20:06.733Z,13.13
2018-09-28T09:22:34.790Z,18.70
2018-09-28T09:25:02.799Z,13.63
2018-09-28T09:27:30.827Z,15.57
2018-09-28T09:29:58.873Z,15.57
2018-09-28T09:32:26.891Z,13.93
2018-09-28T09:34:54.967Z,13.67
2018-09-28T09:37:23.048Z,17.27
2018-09-28T09:39:51.112Z,10.97
2018-09-28T09:42:19.123Z,14.23
2018-09-28T09:44:47.150Z,12.20
2018-09-28T09:47:15.172Z,8.10
2018-09-28T09:49:43.177Z,15.27
2018-09-28T09:52:11.181Z,17.90
2018-09-28T09:54:39.177Z,17.83
2018-09-28T09:57:07.304Z,11.13
2018-09-28T09:59:35.298Z,12.00
2018-09-28T10:02:03.380Z,10.60
2018-09-28T10:04:31.581Z,13.50
2018-09-28T10:06:59.638Z,19.10
2018-09-28T10:09:27.650Z,15.73
2018-09-28T10:11:55.710Z,14.63
2018-09-28T10:14:23.752Z,12.23
2018-09-28T10:16:51.910Z,17.50
2018-09-28T10:19:20.120Z,17.13
2018-09-28T10:21:48.246Z,16.67
2018-09-28T10:24:16.403Z,20.77
2018-09-28T10:26:44.465Z,15.37
2018-09-28T10:29:14.423Z,16.87
2018-09-28T10:31:42.531Z,18.80
2018-09-28T10:34:10.637Z,18.17
2018-09-28T10:36:38.633Z,16.50
2018-09-28T10:39:07.204Z,18.47
2018-09-28T10:41:35.253Z,18.33
2018-09-28T10:44:03.553Z,17.63
2018-09-28T10:46:31.666Z,14.73
2018-09-28T10:48:59.679Z,14.03
2018-09-28T10:51:27.815Z,16.33
2018-09-28T10:53:55.776Z,15.00
2018-09-28T10:56:23.806Z,8.73
2018-09-28T10:58:51.929Z,14.80
2018-09-28T11:01:20.038Z,17.60
2018-09-28T11:03:48.122Z,11.10
2018-09-28T11:06:16.204Z,15.68
2018-09-28T11:08:44.334Z,12.87
2018-09-28T11:11:12.418Z,18.20
2018-09-28T11:13:40.494Z,18.33
2018-09-28T11:16:08.686Z,22.70
2018-09-28T11:18:36.784Z,13.17
2018-09-28T11:21:04.892Z,8.80
2018-09-28T11:23:33.090Z,17.70
2018-09-28T11:26:01.171Z,10.20
2018-09-28T11:28:29.196Z,14.73
2018-09-28T11:30:57.262Z,13.57
2018-09-28T11:33:25.403Z,15.50
2018-09-28T11:35:53.441Z,17.30
2018-09-28T11:38:21.492Z,16.77
2018-09-28T11:40:49.597Z,11.90
2018-09-28T11:43:17.739Z,17.20
2018-09-28T11:45:45.829Z,11.53
2018-09-28T11:48:13.846Z,11.97
2018-09-28T11:50:41.957Z,18.93
2018-09-28T11:53:10.029Z,14.27
2018-09-28T11:55:38.152Z,16.00
2018-09-28T11:58:06.252Z,16.73
2018-09-28T12:00:34.326Z,13.67
2018-09-28T12:03:02.370Z,12.87
2018-09-28T12:05:30.419Z,16.00
2018-09-28T12:07:58.490Z,14.60
2018-09-28T12:10:26.615Z,12.53
2018-09-28T12:12:54.643Z,13.73
2018-09-28T12:15:22.736Z,10.43
2018-09-28T12:17:50.721Z,13.40
2018-09-28T12:20:18.976Z,13.77
2018-09-28T12:22:46.994Z,13.23
2018-09-28T12:25:15.054Z,10.67
2018-09-28T12:27:43.254Z,11.77
2018-09-28T12:30:11.559Z,9.40
2018-09-28T12:32:39.678Z,11.03
2018-09-28T12:35:07.749Z,17.47
2018-09-28T12:37:35.846Z,16.20
2018-09-28T12:40:04.035Z,11.20
2018-09-28T12:42:32.205Z,17.50
2018-09-28T12:45:00.305Z,9.03
2018-09-28T12:47:28.367Z,11.10
2018-09-28T12:49:56.467Z,13.13
2018-09-28T12:52:24.517Z,6.33
2018-09-28T12:54:52.628Z,11.40
2018-09-28T12:57:20.664Z,10.20
2018-09-28T12:59:48.750Z,13.07
2018-09-28T13:02:16.927Z,9.03
2018-09-28T13:04:44.932Z,9.20
2018-09-28T13:07:12.982Z,7.80
2018-09-28T13:09:41.099Z,14.13
2018-09-28T13:12:09.222Z,10.77
2018-09-28T13:14:37.868Z,8.37
2018-09-28T13:17:06.044Z,11.73
2018-09-28T13:19:34.202Z,14.83
2018-09-28T13:22:02.277Z,8.90
2018-09-28T13:24:30.401Z,10.90
2018-09-28T13:26:58.553Z,11.63
2018-09-28T13:29:26.645Z,11.17
2018-09-28T13:31:54.718Z,12.50
2018-09-28T13:34:22.862Z,11.47
2018-09-28T13:36:51.067Z,12.93
2018-09-28T13:39:19.085Z,7.97
2018-09-28T13:41:47.263Z,11.63
2018-09-28T13:44:15.334Z,10.03
2018-09-28T13:46:43.523Z,10.23
2018-09-28T13:49:11.526Z,13.07
2018-09-28T13:51:40.341Z,7.90
2018-09-28T13:54:08.345Z,8.57
2018-09-28T13:56:36.423Z,10.50
2018-09-28T13:59:04.471Z,9.60
2018-09-28T14:01:32.580Z,9.43
2018-09-28T14:04:00.621Z,9.97
2018-09-28T14:06:28.716Z,8.50
2018-09-28T14:08:56.827Z,12.20
2018-09-28T14:11:24.870Z,8.37
2018-09-28T14:13:53.249Z,7.83
2018-09-28T14:16:21.390Z,8.43
2018-09-28T14:18:49.537Z,7.43
2018-09-28T14:21:17.852Z,11.73
2018-09-28T14:23:45.934Z,9.63
2018-09-28T14:26:14.249Z,7.80
2018-09-28T14:28:42.344Z,8.47
2018-09-28T14:31:10.433Z,10.17
2018-09-28T14:33:39.636Z,8.10
2018-09-28T14:36:07.833Z,6.80
2018-09-28T14:38:35.868Z,6.50
2018-09-28T14:41:03.915Z,5.23
2018-09-28T14:43:32.166Z,5.60
2018-09-28T14:46:00.273Z,7.70
2018-09-28T14:48:28.311Z,6.80
2018-09-28T14:50:56.321Z,7.53
2018-09-28T14:53:24.353Z,8.63
2018-09-28T14:55:52.477Z,5.27
2018-09-28T14:58:20.592Z,4.27
2018-09-28T15:00:48.783Z,9.73
2018-09-28T15:03:16.725Z,6.53
2018-09-28T15:05:44.837Z,5.63
2018-09-28T15:08:12.901Z,6.30
2018-09-28T15:10:41.407Z,6.10
2018-09-28T15:13:09.401Z,8.93
2018-09-28T15:15:37.967Z,7.43
2018-09-28T15:18:07.313Z,6.57
2018-09-28T15:20:35.617Z,5.03
2018-09-28T15:23:04.300Z,7.77
2018-09-28T15:25:32.430Z,8.40
2018-09-28T15:28:01.468Z,6.03
2018-09-28T15:30:29.573Z,8.30
2018-09-28T15:32:57.697Z,6.50
2018-09-28T15:35:25.944Z,8.53
2018-09-28T15:37:54.519Z,5.93
2018-09-28T15:40:22.726Z,9.90
2018-09-28T15:42:50.771Z,4.50
2018-09-28T15:45:18.826Z,7.43
2018-09-28T15:47:46.970Z,10.23
2018-09-28T15:50:15.035Z,6.80
2018-09-28T15:52:43.101Z,7.20
2018-09-28T15:55:11.130Z,4.90
2018-09-28T15:57:39.287Z,7.13
2018-09-28T16:00:08.040Z,5.63
2018-09-28T16:02:36.072Z,5.83
2018-09-28T16:05:04.272Z,8.63
2018-09-28T16:07:32.533Z,8.47
2018-09-28T16:10:00.613Z,7.93
2018-09-28T16:12:28.720Z,7.73
2018-09-28T16:14:56.805Z,13.47
2018-09-28T16:17:24.849Z,6.03
2018-09-28T16:19:52.904Z,7.80
2018-09-28T16:22:21.008Z,7.73
2018-09-28T16:24:56.064Z,8.53
2018-09-28T16:27:24.151Z,6.70
2018-09-28T16:29:52.315Z,6.03
2018-09-28T16:32:20.459Z,6.90
2018-09-28T16:34:48.581Z,8.20
2018-09-28T16:37:16.652Z,6.10
2018-09-28T16:39:44.701Z,6.77
2018-09-28T16:42:12.842Z,8.70
2018-09-28T16:44:41.198Z,6.00
2018-09-28T16:47:10.264Z,5.13
2018-09-28T16:49:38.392Z,8.33
2018-09-28T16:52:06.520Z,9.87
2018-09-28T16:54:34.624Z,9.73
2018-09-28T16:57:02.760Z,7.43
2018-09-28T16:59:30.875Z,10.47
2018-09-28T17:01:58.954Z,12.83
2018-09-28T17:04:27.053Z,5.47
2018-09-28T17:06:55.153Z,6.40
2018-09-28T17:09:23.407Z,6.37
2018-09-28T17:11:51.581Z,5.43
2018-09-28T17:14:19.662Z,9.93
2018-09-28T17:16:47.808Z,6.00
2018-09-28T17:19:15.876Z,13.07
2018-09-28T17:21:43.933Z,5.13
2018-09-28T17:24:12.097Z,4.97
2018-09-28T17:26:40.163Z,6.00
2018-09-28T17:29:08.221Z,7.43
2018-09-28T17:31:36.357Z,6.50
2018-09-28T17:34:04.448Z,9.53
2018-09-28T17:36:32.706Z,6.43
2018-09-28T17:39:00.811Z,6.97
2018-09-28T17:41:28.981Z,5.90
2018-09-28T17:43:57.974Z,8.97
2018-09-28T17:46:26.085Z,9.80
2018-09-28T17:48:54.201Z,7.33
2018-09-28T17:51:22.272Z,10.10
2018-09-28T17:53:50.407Z,23.50
2018-09-28T17:56:18.565Z,10.63
2018-09-28T17:58:46.656Z,21.90
2018-09-28T18:01:14.737Z,15.20
2018-09-28T18:03:42.904Z,19.40
2018-09-28T18:06:10.977Z,12.47
2018-09-28T18:08:39.291Z,14.57
2018-09-28T18:11:07.383Z,21.50
2018-09-28T18:13:35.458Z,15.87
2018-09-28T18:16:03.566Z,17.83
2018-09-28T18:18:31.866Z,16.93
2018-09-28T18:20:59.929Z,11.73
2018-09-28T18:23:28.121Z,10.23
2018-09-28T18:25:59.257Z,10.97
2018-09-28T18:28:27.710Z,13.13
2018-09-28T18:30:56.307Z,10.37
2018-09-28T18:33:24.657Z,7.57
2018-09-28T18:35:52.829Z,13.77
2018-09-28T18:38:20.920Z,11.83
2018-09-28T18:40:49.025Z,12.70
2018-09-28T18:43:17.200Z,9.63
2018-09-28T18:45:45.344Z,16.83
2018-09-28T18:48:13.543Z,12.30
2018-09-28T18:50:41.682Z,18.00
2018-09-28T18:53:09.709Z,10.97
2018-09-28T18:55:37.817Z,13.33
2018-09-28T18:58:06.139Z,5.93
2018-09-28T19:00:34.206Z,12.10
2018-09-28T19:03:02.494Z,7.40
2018-09-28T19:05:30.793Z,16.07
2018-09-28T19:07:58.933Z,9.70
2018-09-28T19:10:27.198Z,9.33
2018-09-28T19:12:55.398Z,8.83
2018-09-28T19:15:23.411Z,7.00
2018-09-28T19:17:51.540Z,9.17
2018-09-28T19:20:19.620Z,6.97
2018-09-28T19:22:47.821Z,7.87
2018-09-28T19:25:15.881Z,6.50
2018-09-28T19:27:44.049Z,8.37
2018-09-28T19:30:12.151Z,9.70
2018-09-28T19:32:40.243Z,6.97
2018-09-28T19:35:08.325Z,8.47
2018-09-28T19:37:36.409Z,10.03
2018-09-28T19:40:04.533Z,9.60
2018-09-28T19:42:32.755Z,9.60
2018-09-28T19:45:00.827Z,9.93
2018-09-28T19:47:28.965Z,9.10
2018-09-28T19:49:57.090Z,7.07
2018-09-28T19:52:25.218Z,7.10
2018-09-28T19:54:53.269Z,8.53
2018-09-28T19:57:21.348Z,6.83
2018-09-28T19:59:49.466Z,9.67
2018-09-28T20:02:17.566Z,10.90
2018-09-28T20:04:45.644Z,8.80
2018-09-28T20:07:13.762Z,7.20
2018-09-28T20:09:41.841Z,8.33
2018-09-28T20:12:09.891Z,7.47
2018-09-28T20:14:38.071Z,8.90
2018-09-28T20:17:06.578Z,8.80
2018-09-28T20:19:34.772Z,11.47
2018-09-28T20:22:03.728Z,9.10
2018-09-28T20:24:31.830Z,6.70
2018-09-28T20:26:59.916Z,8.00
2018-09-28T20:29:28.199Z,7.07
2018-09-28T20:31:56.286Z,11.43
2018-09-28T20:34:24.433Z,10.30
2018-09-28T20:36:52.558Z,9.13
2018-09-28T20:39:20.752Z,7.40
2018-09-28T20:41:48.896Z,7.37
2018-09-28T20:44:17.094Z,9.30
2018-09-28T20:46:45.546Z,9.00
2018-09-28T20:49:13.841Z,6.03
2018-09-28T20:51:41.989Z,8.97
2018-09-28T20:54:10.056Z,10.37
2018-09-28T20:56:38.142Z,6.60
2018-09-28T20:59:06.214Z,7.07
2018-09-28T21:01:34.306Z,9.07
2018-09-28T21:04:02.373Z,10.20
2018-09-28T21:06:30.410Z,9.07
2018-09-28T21:08:58.471Z,6.30
2018-09-28T21:11:26.553Z,6.83
2018-09-28T21:13:56.062Z,13.67
2018-09-28T21:16:24.215Z,7.37
2018-09-28T21:18:52.367Z,8.17
2018-09-28T21:21:25.118Z,6.73
2018-09-28T21:23:53.288Z,5.87
2018-09-28T21:26:21.339Z,7.27
2018-09-28T21:28:49.566Z,7.70
2018-09-28T21:31:17.549Z,7.63
2018-09-28T21:33:45.943Z,10.53
2018-09-28T21:36:14.117Z,10.63
2018-09-28T21:38:42.253Z,8.57
2018-09-28T21:43:44.394Z,9.90
2018-09-28T21:46:12.537Z,9.43
2018-09-28T21:48:40.733Z,11.23
2018-09-28T21:51:09.004Z,8.40
2018-09-28T21:53:37.057Z,12.27
2018-09-28T21:56:05.112Z,8.60
2018-09-28T21:58:33.233Z,9.77
2018-09-28T22:01:01.480Z,8.03
2018-09-28T22:03:29.550Z,8.67
2018-09-28T22:05:57.599Z,5.53
2018-09-28T22:08:25.655Z,10.57
2018-09-28T22:10:53.739Z,9.07
2018-09-28T22:13:21.764Z,10.13
2018-09-28T22:15:49.808Z,10.77
2018-09-28T22:18:17.849Z,9.63
2018-09-28T22:20:45.905Z,11.40
2018-09-28T22:23:14.068Z,9.13
2018-09-28T22:25:42.235Z,9.83
2018-09-28T22:28:10.453Z,11.53
2018-09-28T22:30:38.488Z,4.63
2018-09-28T22:33:06.830Z,8.23
2018-09-28T22:35:34.840Z,10.97
2018-09-28T22:38:02.984Z,9.63
2018-09-28T22:40:31.471Z,8.30
2018-09-28T22:42:59.928Z,7.93
2018-09-28T22:45:28.279Z,5.33
2018-09-28T22:47:56.340Z,6.53
2018-09-28T22:50:24.436Z,6.57
2018-09-28T22:52:52.481Z,9.47
2018-09-28T22:55:20.643Z,9.17
2018-09-28T22:57:48.686Z,11.03
2018-09-28T23:00:16.785Z,7.33
2018-09-28T23:02:44.801Z,5.93
2018-09-28T23:05:12.924Z,7.50
2018-09-28T23:07:40.974Z,7.60
2018-09-28T23:10:09.025Z,5.73
2018-09-28T23:12:37.058Z,11.40
2018-09-28T23:15:05.305Z,8.87
2018-09-28T23:17:33.378Z,7.03
2018-09-28T23:20:01.448Z,7.30
2018-09-28T23:22:29.475Z,9.40
2018-09-28T23:24:57.586Z,7.13
2018-09-28T23:27:25.683Z,6.73
2018-09-28T23:29:53.853Z,6.93
2018-09-28T23:32:21.877Z,8.93
2018-09-28T23:34:49.918Z,7.40
2018-09-28T23:37:17.949Z,8.73
2018-09-28T23:39:46.142Z,7.03
2018-09-28T23:42:14.177Z,6.73
2018-09-28T23:44:42.226Z,5.23
2018-09-28T23:47:10.329Z,8.03
2018-09-28T23:49:38.519Z,8.10
2018-09-28T23:52:06.754Z,9.43
2018-09-28T23:54:34.815Z,8.80
2018-09-28T23:57:02.887Z,9.60
2018-09-28T23:59:30.925Z,9.10
